SAS45T EKCH-EFHK
Flight info
| Callsign | SAS45T |
|---|---|
| Flight time | 1h 22m |
| Altitude | 37000 |
| Route | KEMAX Q44 IDPAL DCT MOVIS DCT ALAMI DCT OKEVU DCT EVADI Y370 DIVAM |
| Aircraft | A320/M-SDE3FGHIJ1RWXYZ/ALB1 |
Departure
| Time | 2026-04-26 09:27 |
|---|---|
| Airport | Copenhagen Kastrup Airport (EKCH) |
Arrival
| Time | 2026-04-26 10:50 |
|---|---|
| Airport | Helsinki Vantaa Airport (EFHK) |
| Time | Latitude | Longitude | Altitude | Speed | Heading |
|---|---|---|---|---|---|
| 2026-04-26 09:00 | 55.62568 | 12.64511 | 24 ft | 0 kts | 15° |
| 2026-04-26 09:16 | 55.62557 | 12.64506 | 25 ft | 4 kts | 17° |
| 2026-04-26 09:17 | 55.62532 | 12.64489 | 26 ft | 4 kts | 31° |
| 2026-04-26 09:17 | 55.62514 | 12.64460 | 25 ft | 4 kts | 76° |
| 2026-04-26 09:17 | 55.62513 | 12.64439 | 25 ft | 0 kts | 123° |
| 2026-04-26 09:20 | 55.62510 | 12.64449 | 26 ft | 2 kts | 123° |
| 2026-04-26 09:21 | 55.62495 | 12.64489 | 25 ft | 5 kts | 123° |
| 2026-04-26 09:21 | 55.62469 | 12.64557 | 24 ft | 8 kts | 123° |
| 2026-04-26 09:21 | 55.62433 | 12.64655 | 24 ft | 11 kts | 123° |
| 2026-04-26 09:21 | 55.62386 | 12.64780 | 24 ft | 14 kts | 123° |
| 2026-04-26 09:22 | 55.62332 | 12.64894 | 24 ft | 11 kts | 164° |
| 2026-04-26 09:22 | 55.62258 | 12.64833 | 24 ft | 13 kts | 216° |
| 2026-04-26 09:22 | 55.62176 | 12.64731 | 25 ft | 15 kts | 214° |
| 2026-04-26 09:22 | 55.62079 | 12.64619 | 23 ft | 18 kts | 209° |
| 2026-04-26 09:23 | 55.61962 | 12.64509 | 24 ft | 20 kts | 192° |
| 2026-04-26 09:23 | 55.61815 | 12.64541 | 25 ft | 23 kts | 167° |
| 2026-04-26 09:23 | 55.61709 | 12.64563 | 24 ft | 16 kts | 182° |
| 2026-04-26 09:23 | 55.61601 | 12.64482 | 25 ft | 18 kts | 214° |
| 2026-04-26 09:24 | 55.61488 | 12.64351 | 24 ft | 21 kts | 212° |
| 2026-04-26 09:24 | 55.61360 | 12.64200 | 26 ft | 24 kts | 215° |
| 2026-04-26 09:24 | 55.61213 | 12.64035 | 24 ft | 26 kts | 213° |
| 2026-04-26 09:24 | 55.61051 | 12.63845 | 24 ft | 29 kts | 213° |
| 2026-04-26 09:25 | 55.60970 | 12.63753 | 24 ft | 12 kts | 212° |
| 2026-04-26 09:25 | 55.60890 | 12.63661 | 24 ft | 15 kts | 212° |
| 2026-04-26 09:25 | 55.60823 | 12.63594 | 24 ft | 10 kts | 193° |
| 2026-04-26 09:25 | 55.60759 | 12.63660 | 24 ft | 12 kts | 129° |
| 2026-04-26 09:26 | 55.60699 | 12.63785 | 24 ft | 14 kts | 126° |
| 2026-04-26 09:26 | 55.60726 | 12.63941 | 25 ft | 16 kts | 42° |
| 2026-04-26 09:26 | 55.60893 | 12.64200 | 26 ft | 58 kts | 40° |
| 2026-04-26 09:26 | 55.61366 | 12.64926 | 25 ft | 119 kts | 41° |
| 2026-04-26 09:27 | 55.62088 | 12.66046 | 254 ft | 143 kts | 39° |
| 2026-04-26 09:27 | 55.62830 | 12.67211 | 914 ft | 143 kts | 38° |
| 2026-04-26 09:27 | 55.63608 | 12.68414 | 1380 ft | 158 kts | 37° |
| 2026-04-26 09:27 | 55.64494 | 12.69778 | 1701 ft | 180 kts | 37° |
| 2026-04-26 09:28 | 55.65500 | 12.71321 | 2035 ft | 203 kts | 37° |
| 2026-04-26 09:28 | 55.66623 | 12.72997 | 2453 ft | 222 kts | 36° |
| 2026-04-26 09:28 | 55.67856 | 12.74825 | 2976 ft | 242 kts | 37° |
| 2026-04-26 09:28 | 55.69173 | 12.76784 | 3814 ft | 250 kts | 37° |
| 2026-04-26 09:29 | 55.70510 | 12.78782 | 4835 ft | 252 kts | 37° |
| 2026-04-26 09:29 | 55.71857 | 12.80805 | 5847 ft | 255 kts | 37° |
| 2026-04-26 09:29 | 55.73218 | 12.82846 | 6791 ft | 259 kts | 37° |
| 2026-04-26 09:29 | 55.74608 | 12.84926 | 7163 ft | 262 kts | 37° |
| 2026-04-26 09:30 | 55.75985 | 12.87047 | 7285 ft | 262 kts | 37° |
| 2026-04-26 09:30 | 55.77356 | 12.89204 | 7438 ft | 266 kts | 38° |
| 2026-04-26 09:30 | 55.78686 | 12.91504 | 8368 ft | 269 kts | 43° |
| 2026-04-26 09:30 | 55.79926 | 12.94008 | 9318 ft | 271 kts | 43° |
| 2026-04-26 09:31 | 55.81161 | 12.96577 | 10211 ft | 275 kts | 43° |
| 2026-04-26 09:31 | 55.82425 | 12.99230 | 10697 ft | 292 kts | 43° |
| 2026-04-26 09:31 | 55.83791 | 13.02084 | 11022 ft | 311 kts | 43° |
| 2026-04-26 09:31 | 55.85208 | 13.05061 | 11667 ft | 318 kts | 43° |
| 2026-04-26 09:32 | 55.86641 | 13.08088 | 12434 ft | 321 kts | 43° |
| 2026-04-26 09:32 | 55.88086 | 13.11147 | 13268 ft | 323 kts | 41° |
| 2026-04-26 09:32 | 55.89520 | 13.14176 | 14043 ft | 325 kts | 41° |
| 2026-04-26 09:32 | 55.91005 | 13.17311 | 14721 ft | 329 kts | 41° |
| 2026-04-26 09:33 | 55.92469 | 13.20396 | 15358 ft | 332 kts | 40° |
| 2026-04-26 09:33 | 55.93966 | 13.23556 | 15993 ft | 335 kts | 40° |
| 2026-04-26 09:33 | 55.95479 | 13.26749 | 16629 ft | 339 kts | 40° |
| 2026-04-26 09:33 | 55.97027 | 13.30024 | 17276 ft | 342 kts | 40° |
| 2026-04-26 09:34 | 55.98546 | 13.33246 | 17917 ft | 346 kts | 40° |
| 2026-04-26 09:34 | 56.00102 | 13.36553 | 18563 ft | 349 kts | 40° |
| 2026-04-26 09:34 | 56.01693 | 13.39936 | 19147 ft | 353 kts | 40° |
| 2026-04-26 09:34 | 56.03259 | 13.43265 | 19698 ft | 356 kts | 40° |
| 2026-04-26 09:35 | 56.04861 | 13.46678 | 20280 ft | 360 kts | 40° |
| 2026-04-26 09:35 | 56.06476 | 13.50129 | 20848 ft | 364 kts | 40° |
| 2026-04-26 09:35 | 56.08105 | 13.53621 | 21405 ft | 367 kts | 40° |
| 2026-04-26 09:35 | 56.09750 | 13.57150 | 21983 ft | 371 kts | 39° |
| 2026-04-26 09:36 | 56.11408 | 13.60711 | 22560 ft | 373 kts | 39° |
| 2026-04-26 09:36 | 56.13076 | 13.64293 | 23131 ft | 376 kts | 39° |
| 2026-04-26 09:36 | 56.14760 | 13.67913 | 23686 ft | 380 kts | 39° |
| 2026-04-26 09:36 | 56.16461 | 13.71574 | 24162 ft | 383 kts | 39° |
| 2026-04-26 09:37 | 56.18174 | 13.75269 | 24605 ft | 387 kts | 39° |
| 2026-04-26 09:37 | 56.19905 | 13.79003 | 25024 ft | 391 kts | 39° |
| 2026-04-26 09:37 | 56.21646 | 13.82772 | 25443 ft | 394 kts | 39° |
| 2026-04-26 09:37 | 56.23400 | 13.86581 | 25935 ft | 396 kts | 39° |
| 2026-04-26 09:38 | 56.25156 | 13.90410 | 26404 ft | 398 kts | 39° |
| 2026-04-26 09:38 | 56.26924 | 13.94266 | 26824 ft | 401 kts | 39° |
| 2026-04-26 09:38 | 56.28706 | 13.98150 | 27208 ft | 404 kts | 39° |
| 2026-04-26 09:38 | 56.30501 | 14.02065 | 27598 ft | 407 kts | 39° |
| 2026-04-26 09:39 | 56.32309 | 14.06007 | 28032 ft | 410 kts | 39° |
| 2026-04-26 09:39 | 56.34128 | 14.09980 | 28448 ft | 412 kts | 39° |
| 2026-04-26 09:39 | 56.35953 | 14.13982 | 28833 ft | 415 kts | 39° |
| 2026-04-26 09:39 | 56.37789 | 14.18026 | 29199 ft | 418 kts | 39° |
| 2026-04-26 09:40 | 56.39636 | 14.22101 | 29559 ft | 421 kts | 39° |
| 2026-04-26 09:40 | 56.41500 | 14.26212 | 29927 ft | 424 kts | 39° |
| 2026-04-26 09:40 | 56.43374 | 14.30347 | 30282 ft | 427 kts | 39° |
| 2026-04-26 09:40 | 56.45259 | 14.34519 | 30591 ft | 430 kts | 39° |
| 2026-04-26 09:41 | 56.47156 | 14.38728 | 30904 ft | 433 kts | 39° |
| 2026-04-26 09:41 | 56.49063 | 14.42968 | 31218 ft | 435 kts | 40° |
| 2026-04-26 09:41 | 56.50982 | 14.47237 | 31521 ft | 438 kts | 40° |
| 2026-04-26 09:41 | 56.52899 | 14.51510 | 31940 ft | 437 kts | 40° |
| 2026-04-26 09:42 | 56.54808 | 14.55779 | 32465 ft | 435 kts | 40° |
| 2026-04-26 09:42 | 56.56707 | 14.60038 | 32948 ft | 433 kts | 40° |
| 2026-04-26 09:42 | 56.58600 | 14.64282 | 33459 ft | 432 kts | 39° |
| 2026-04-26 09:42 | 56.60482 | 14.68508 | 33988 ft | 429 kts | 39° |
| 2026-04-26 09:43 | 56.62351 | 14.72715 | 34445 ft | 428 kts | 39° |
| 2026-04-26 09:43 | 56.64217 | 14.76916 | 34819 ft | 427 kts | 39° |
| 2026-04-26 09:43 | 56.66082 | 14.81115 | 35168 ft | 426 kts | 39° |
| 2026-04-26 09:43 | 56.67945 | 14.85310 | 35512 ft | 426 kts | 40° |
| 2026-04-26 09:44 | 56.69799 | 14.89500 | 35847 ft | 426 kts | 40° |
| 2026-04-26 09:44 | 56.71653 | 14.93703 | 36180 ft | 425 kts | 40° |
| 2026-04-26 09:44 | 56.73504 | 14.97909 | 36502 ft | 425 kts | 40° |
| 2026-04-26 09:44 | 56.75353 | 15.02111 | 36864 ft | 425 kts | 40° |
| 2026-04-26 09:45 | 56.77195 | 15.06304 | 37159 ft | 425 kts | 41° |
| 2026-04-26 09:45 | 56.80878 | 15.14726 | 37208 ft | 424 kts | 41° |
| 2026-04-26 09:46 | 56.84549 | 15.23152 | 37209 ft | 424 kts | 41° |
| 2026-04-26 09:46 | 56.88219 | 15.31592 | 37206 ft | 424 kts | 41° |
| 2026-04-26 09:47 | 56.91883 | 15.40049 | 37207 ft | 424 kts | 41° |
| 2026-04-26 09:47 | 56.95518 | 15.48481 | 37217 ft | 424 kts | 41° |
| 2026-04-26 09:48 | 56.99165 | 15.56969 | 37205 ft | 424 kts | 41° |
| 2026-04-26 09:48 | 57.02808 | 15.65475 | 37199 ft | 424 kts | 41° |
| 2026-04-26 09:49 | 57.06453 | 15.74005 | 37195 ft | 425 kts | 41° |
| 2026-04-26 09:49 | 57.10099 | 15.82568 | 37193 ft | 425 kts | 41° |
| 2026-04-26 09:50 | 57.13742 | 15.91155 | 37186 ft | 426 kts | 42° |
| 2026-04-26 09:50 | 57.17376 | 15.99769 | 37189 ft | 426 kts | 42° |
| 2026-04-26 09:51 | 57.21012 | 16.08398 | 37187 ft | 426 kts | 42° |
| 2026-04-26 09:51 | 57.24636 | 16.17040 | 37179 ft | 426 kts | 42° |
| 2026-04-26 09:52 | 57.28254 | 16.25716 | 37176 ft | 426 kts | 42° |
| 2026-04-26 09:52 | 57.33680 | 16.38757 | 37154 ft | 426 kts | 42° |
| 2026-04-26 09:53 | 57.37288 | 16.47462 | 37151 ft | 427 kts | 43° |
| 2026-04-26 09:53 | 57.40898 | 16.56215 | 37181 ft | 428 kts | 43° |
| 2026-04-26 09:54 | 57.44508 | 16.64987 | 37172 ft | 428 kts | 43° |
| 2026-04-26 09:54 | 57.48121 | 16.73800 | 37160 ft | 429 kts | 43° |
| 2026-04-26 09:55 | 57.51722 | 16.82639 | 37163 ft | 429 kts | 43° |
| 2026-04-26 09:55 | 57.55326 | 16.91503 | 37163 ft | 429 kts | 43° |
| 2026-04-26 09:56 | 57.58926 | 17.00389 | 37157 ft | 430 kts | 43° |
| 2026-04-26 09:56 | 57.62494 | 17.09235 | 37159 ft | 430 kts | 43° |
| 2026-04-26 09:57 | 57.66077 | 17.18157 | 37152 ft | 428 kts | 44° |
| 2026-04-26 09:57 | 57.69641 | 17.27057 | 37150 ft | 427 kts | 44° |
| 2026-04-26 09:58 | 57.73199 | 17.35967 | 37150 ft | 428 kts | 44° |
| 2026-04-26 09:58 | 57.76754 | 17.44908 | 37152 ft | 428 kts | 44° |
| 2026-04-26 09:59 | 57.79703 | 17.52350 | 37154 ft | 428 kts | 44° |
| 2026-04-26 09:59 | 57.83835 | 17.62820 | 37130 ft | 425 kts | 44° |
| 2026-04-26 10:00 | 57.87340 | 17.71737 | 37126 ft | 424 kts | 44° |
| 2026-04-26 10:00 | 57.90845 | 17.80678 | 37126 ft | 425 kts | 44° |
| 2026-04-26 10:01 | 57.94351 | 17.89656 | 37127 ft | 426 kts | 44° |
| 2026-04-26 10:01 | 57.97853 | 17.98663 | 37130 ft | 426 kts | 45° |
| 2026-04-26 10:02 | 58.00761 | 18.06179 | 37127 ft | 426 kts | 44° |
| 2026-04-26 10:02 | 58.04249 | 18.15220 | 37127 ft | 425 kts | 45° |
| 2026-04-26 10:03 | 58.07719 | 18.24247 | 37113 ft | 424 kts | 45° |
| 2026-04-26 10:03 | 58.11183 | 18.33285 | 37113 ft | 425 kts | 45° |
| 2026-04-26 10:04 | 58.14635 | 18.42354 | 37118 ft | 425 kts | 45° |
| 2026-04-26 10:04 | 58.18092 | 18.51443 | 37112 ft | 425 kts | 45° |
| 2026-04-26 10:05 | 58.21544 | 18.60530 | 37108 ft | 425 kts | 45° |
| 2026-04-26 10:05 | 58.24983 | 18.69645 | 37131 ft | 425 kts | 46° |
| 2026-04-26 10:06 | 58.28418 | 18.78788 | 37118 ft | 425 kts | 46° |
| 2026-04-26 10:06 | 58.31850 | 18.87941 | 37107 ft | 425 kts | 46° |
| 2026-04-26 10:07 | 58.35272 | 18.97102 | 37083 ft | 424 kts | 47° |
| 2026-04-26 10:07 | 58.38678 | 19.06262 | 37076 ft | 424 kts | 47° |
| 2026-04-26 10:08 | 58.42074 | 19.15451 | 37070 ft | 424 kts | 47° |
| 2026-04-26 10:08 | 58.45445 | 19.24616 | 37099 ft | 425 kts | 47° |
| 2026-04-26 10:09 | 58.48839 | 19.33856 | 37075 ft | 425 kts | 47° |
| 2026-04-26 10:09 | 58.52231 | 19.43108 | 37070 ft | 425 kts | 47° |
| 2026-04-26 10:10 | 58.55621 | 19.52390 | 37069 ft | 426 kts | 47° |
| 2026-04-26 10:10 | 58.59001 | 19.61713 | 37061 ft | 426 kts | 47° |
| 2026-04-26 10:11 | 58.62375 | 19.71062 | 37053 ft | 426 kts | 48° |
| 2026-04-26 10:11 | 58.65747 | 19.80416 | 37062 ft | 427 kts | 48° |
| 2026-04-26 10:12 | 58.69118 | 19.89799 | 37042 ft | 426 kts | 49° |
| 2026-04-26 10:12 | 58.72478 | 19.99186 | 37028 ft | 426 kts | 49° |
| 2026-04-26 10:13 | 58.75832 | 20.08616 | 37012 ft | 427 kts | 49° |
| 2026-04-26 10:13 | 58.79184 | 20.18080 | 37016 ft | 428 kts | 49° |
| 2026-04-26 10:14 | 58.82534 | 20.27570 | 37014 ft | 428 kts | 49° |
| 2026-04-26 10:14 | 58.85878 | 20.37084 | 37055 ft | 429 kts | 49° |
| 2026-04-26 10:15 | 58.89225 | 20.46630 | 37028 ft | 429 kts | 49° |
| 2026-04-26 10:15 | 58.92565 | 20.56202 | 37017 ft | 429 kts | 49° |
| 2026-04-26 10:16 | 58.95899 | 20.65811 | 37017 ft | 430 kts | 49° |
| 2026-04-26 10:16 | 58.99231 | 20.75432 | 37010 ft | 430 kts | 50° |
| 2026-04-26 10:17 | 59.02529 | 20.85025 | 37009 ft | 431 kts | 50° |
| 2026-04-26 10:17 | 59.05865 | 20.94811 | 37019 ft | 433 kts | 51° |
| 2026-04-26 10:18 | 59.09023 | 21.04720 | 37002 ft | 435 kts | 53° |
| 2026-04-26 10:18 | 59.12134 | 21.14827 | 36991 ft | 436 kts | 53° |
| 2026-04-26 10:19 | 59.15260 | 21.24933 | 36978 ft | 436 kts | 53° |
| 2026-04-26 10:19 | 59.18404 | 21.35032 | 36981 ft | 436 kts | 53° |
| 2026-04-26 10:20 | 59.21037 | 21.43507 | 36970 ft | 436 kts | 53° |
| 2026-04-26 10:20 | 59.24675 | 21.55286 | 36966 ft | 436 kts | 53° |
| 2026-04-26 10:21 | 59.27801 | 21.65463 | 36965 ft | 437 kts | 53° |
| 2026-04-26 10:21 | 59.30922 | 21.75661 | 36952 ft | 437 kts | 53° |
| 2026-04-26 10:22 | 59.32483 | 21.80780 | 36699 ft | 438 kts | 54° |
| 2026-04-26 10:22 | 59.34037 | 21.85897 | 36439 ft | 437 kts | 54° |
| 2026-04-26 10:22 | 59.35586 | 21.91009 | 36009 ft | 434 kts | 53° |
| 2026-04-26 10:22 | 59.37119 | 21.96077 | 35520 ft | 431 kts | 53° |
| 2026-04-26 10:23 | 59.38645 | 22.01125 | 35060 ft | 429 kts | 53° |
| 2026-04-26 10:23 | 59.40162 | 22.06147 | 34587 ft | 427 kts | 52° |
| 2026-04-26 10:23 | 59.41671 | 22.11148 | 34110 ft | 425 kts | 52° |
| 2026-04-26 10:23 | 59.43175 | 22.16135 | 33579 ft | 423 kts | 52° |
| 2026-04-26 10:24 | 59.44663 | 22.21083 | 33110 ft | 419 kts | 52° |
| 2026-04-26 10:24 | 59.46137 | 22.26007 | 32604 ft | 416 kts | 52° |
| 2026-04-26 10:24 | 59.47594 | 22.30897 | 32125 ft | 412 kts | 52° |
| 2026-04-26 10:24 | 59.49032 | 22.35745 | 31640 ft | 408 kts | 52° |
| 2026-04-26 10:25 | 59.50453 | 22.40547 | 31179 ft | 405 kts | 52° |
| 2026-04-26 10:25 | 59.51865 | 22.45313 | 30705 ft | 401 kts | 52° |
| 2026-04-26 10:25 | 59.53265 | 22.50037 | 30253 ft | 398 kts | 51° |
| 2026-04-26 10:25 | 59.54651 | 22.54726 | 29784 ft | 394 kts | 51° |
| 2026-04-26 10:26 | 59.56019 | 22.59371 | 29319 ft | 389 kts | 51° |
| 2026-04-26 10:26 | 59.57366 | 22.63955 | 28909 ft | 384 kts | 51° |
| 2026-04-26 10:26 | 59.58677 | 22.68424 | 28499 ft | 379 kts | 52° |
| 2026-04-26 10:26 | 59.60005 | 22.72961 | 28108 ft | 375 kts | 52° |
| 2026-04-26 10:27 | 59.61286 | 22.77354 | 27671 ft | 373 kts | 53° |
| 2026-04-26 10:27 | 59.62573 | 22.81770 | 27274 ft | 370 kts | 53° |
| 2026-04-26 10:27 | 59.63851 | 22.86158 | 26884 ft | 367 kts | 53° |
| 2026-04-26 10:27 | 59.65122 | 22.90526 | 26489 ft | 365 kts | 53° |
| 2026-04-26 10:28 | 59.66381 | 22.94867 | 26098 ft | 363 kts | 53° |
| 2026-04-26 10:28 | 59.67633 | 22.99195 | 25682 ft | 361 kts | 53° |
| 2026-04-26 10:28 | 59.68878 | 23.03502 | 25286 ft | 359 kts | 54° |
| 2026-04-26 10:28 | 59.70118 | 23.07783 | 24862 ft | 358 kts | 54° |
| 2026-04-26 10:29 | 59.71351 | 23.12046 | 24452 ft | 356 kts | 54° |
| 2026-04-26 10:29 | 59.72578 | 23.16303 | 24016 ft | 355 kts | 54° |
| 2026-04-26 10:29 | 59.73799 | 23.20549 | 23598 ft | 354 kts | 54° |
| 2026-04-26 10:29 | 59.75014 | 23.24784 | 23117 ft | 353 kts | 54° |
| 2026-04-26 10:30 | 59.76221 | 23.28997 | 22674 ft | 349 kts | 55° |
| 2026-04-26 10:30 | 59.77412 | 23.33169 | 22250 ft | 345 kts | 55° |
| 2026-04-26 10:30 | 59.78585 | 23.37297 | 21818 ft | 342 kts | 55° |
| 2026-04-26 10:30 | 59.79744 | 23.41383 | 21405 ft | 338 kts | 56° |
| 2026-04-26 10:31 | 59.80892 | 23.45430 | 20991 ft | 334 kts | 56° |
| 2026-04-26 10:31 | 59.82029 | 23.49438 | 20588 ft | 331 kts | 57° |
| 2026-04-26 10:31 | 59.83157 | 23.53414 | 20155 ft | 330 kts | 56° |
| 2026-04-26 10:31 | 59.84276 | 23.57371 | 19736 ft | 327 kts | 55° |
| 2026-04-26 10:32 | 59.85385 | 23.61298 | 19323 ft | 324 kts | 57° |
| 2026-04-26 10:32 | 59.86486 | 23.65202 | 18915 ft | 322 kts | 55° |
| 2026-04-26 10:32 | 59.87577 | 23.69069 | 18510 ft | 320 kts | 58° |
| 2026-04-26 10:32 | 59.88660 | 23.72929 | 18132 ft | 318 kts | 59° |
| 2026-04-26 10:33 | 59.89735 | 23.76783 | 17679 ft | 318 kts | 58° |
| 2026-04-26 10:33 | 59.90801 | 23.80613 | 17291 ft | 315 kts | 58° |
| 2026-04-26 10:33 | 59.91857 | 23.84428 | 16888 ft | 313 kts | 59° |
| 2026-04-26 10:33 | 59.92882 | 23.88242 | 16488 ft | 311 kts | 59° |
| 2026-04-26 10:34 | 59.93887 | 23.92055 | 16070 ft | 310 kts | 57° |
| 2026-04-26 10:34 | 59.94877 | 23.95848 | 15682 ft | 308 kts | 60° |
| 2026-04-26 10:34 | 59.95863 | 23.99628 | 15289 ft | 306 kts | 58° |
| 2026-04-26 10:34 | 59.96838 | 24.03362 | 14926 ft | 303 kts | 55° |
| 2026-04-26 10:35 | 59.97809 | 24.07077 | 14522 ft | 302 kts | 59° |
| 2026-04-26 10:35 | 59.98774 | 24.10767 | 14189 ft | 299 kts | 58° |
| 2026-04-26 10:35 | 59.99728 | 24.14422 | 13837 ft | 296 kts | 58° |
| 2026-04-26 10:35 | 60.00682 | 24.18074 | 13416 ft | 297 kts | 57° |
| 2026-04-26 10:36 | 60.01628 | 24.21700 | 13115 ft | 291 kts | 56° |
| 2026-04-26 10:36 | 60.02551 | 24.25256 | 12812 ft | 284 kts | 55° |
| 2026-04-26 10:36 | 60.03451 | 24.28729 | 12146 ft | 280 kts | 57° |
| 2026-04-26 10:36 | 60.04342 | 24.32165 | 11486 ft | 276 kts | 56° |
| 2026-04-26 10:37 | 60.05225 | 24.35577 | 11082 ft | 275 kts | 56° |
| 2026-04-26 10:37 | 60.06102 | 24.38961 | 10773 ft | 273 kts | 56° |
| 2026-04-26 10:37 | 60.06972 | 24.42321 | 10432 ft | 271 kts | 56° |
| 2026-04-26 10:37 | 60.07837 | 24.45661 | 10108 ft | 269 kts | 56° |
| 2026-04-26 10:38 | 60.08692 | 24.48977 | 9786 ft | 267 kts | 56° |
| 2026-04-26 10:38 | 60.09541 | 24.52276 | 9451 ft | 265 kts | 55° |
| 2026-04-26 10:38 | 60.10387 | 24.55553 | 9093 ft | 264 kts | 55° |
| 2026-04-26 10:38 | 60.11226 | 24.58818 | 8720 ft | 263 kts | 55° |
| 2026-04-26 10:39 | 60.12060 | 24.62078 | 8357 ft | 262 kts | 55° |
| 2026-04-26 10:39 | 60.12887 | 24.65326 | 7982 ft | 261 kts | 55° |
| 2026-04-26 10:39 | 60.13709 | 24.68563 | 7648 ft | 260 kts | 55° |
| 2026-04-26 10:39 | 60.14528 | 24.71774 | 7331 ft | 259 kts | 55° |
| 2026-04-26 10:40 | 60.15344 | 24.74987 | 7014 ft | 258 kts | 54° |
| 2026-04-26 10:40 | 60.16156 | 24.78183 | 6686 ft | 257 kts | 55° |
| 2026-04-26 10:40 | 60.16955 | 24.81331 | 6355 ft | 256 kts | 54° |
| 2026-04-26 10:40 | 60.17775 | 24.84555 | 6004 ft | 256 kts | 55° |
| 2026-04-26 10:41 | 60.18297 | 24.88025 | 5703 ft | 269 kts | 80° |
| 2026-04-26 10:41 | 60.17886 | 24.91750 | 5393 ft | 284 kts | 113° |
| 2026-04-26 10:41 | 60.16524 | 24.94596 | 5109 ft | 293 kts | 147° |
| 2026-04-26 10:41 | 60.14742 | 24.96455 | 4971 ft | 282 kts | 151° |
| 2026-04-26 10:42 | 60.13032 | 24.98169 | 4673 ft | 270 kts | 151° |
| 2026-04-26 10:42 | 60.11900 | 24.99294 | 4345 ft | 268 kts | 151° |
| 2026-04-26 10:42 | 60.10076 | 25.02164 | 4040 ft | 236 kts | 114° |
| 2026-04-26 10:42 | 60.09524 | 25.04998 | 3850 ft | 206 kts | 86° |
| 2026-04-26 10:43 | 60.09581 | 25.07686 | 3528 ft | 185 kts | 63° |
| 2026-04-26 10:43 | 60.10078 | 25.09944 | 3197 ft | 172 kts | 44° |
| 2026-04-26 10:43 | 60.10869 | 25.11616 | 2855 ft | 161 kts | 27° |
| 2026-04-26 10:43 | 60.11829 | 25.12636 | 2514 ft | 154 kts | 12° |
| 2026-04-26 10:44 | 60.12854 | 25.13044 | 2338 ft | 150 kts | 3° |
| 2026-04-26 10:44 | 60.13888 | 25.13337 | 2306 ft | 150 kts | 4° |
| 2026-04-26 10:44 | 60.14924 | 25.13614 | 2301 ft | 150 kts | 0° |
| 2026-04-26 10:44 | 60.15957 | 25.13484 | 2303 ft | 149 kts | 349° |
| 2026-04-26 10:45 | 60.16943 | 25.12856 | 2300 ft | 150 kts | 338° |
| 2026-04-26 10:45 | 60.17874 | 25.11910 | 2302 ft | 150 kts | 336° |
| 2026-04-26 10:45 | 60.18804 | 25.10963 | 2300 ft | 150 kts | 336° |
| 2026-04-26 10:45 | 60.19736 | 25.10016 | 2303 ft | 150 kts | 336° |
| 2026-04-26 10:46 | 60.20667 | 25.09071 | 2298 ft | 150 kts | 336° |
| 2026-04-26 10:46 | 60.21596 | 25.08126 | 2300 ft | 149 kts | 336° |
| 2026-04-26 10:46 | 60.22486 | 25.07218 | 2175 ft | 137 kts | 336° |
| 2026-04-26 10:46 | 60.23280 | 25.06402 | 1988 ft | 123 kts | 336° |
| 2026-04-26 10:47 | 60.24025 | 25.05642 | 1793 ft | 117 kts | 337° |
| 2026-04-26 10:47 | 60.24752 | 25.04913 | 1655 ft | 116 kts | 337° |
| 2026-04-26 10:47 | 60.25477 | 25.04204 | 1476 ft | 116 kts | 338° |
| 2026-04-26 10:47 | 60.26201 | 25.03503 | 1285 ft | 116 kts | 336° |
| 2026-04-26 10:48 | 60.26679 | 25.02987 | 1178 ft | 115 kts | 335° |
| 2026-04-26 10:48 | 60.27624 | 25.02007 | 1018 ft | 118 kts | 334° |
| 2026-04-26 10:48 | 60.28343 | 25.01210 | 831 ft | 117 kts | 335° |
| 2026-04-26 10:48 | 60.28837 | 25.00728 | 699 ft | 118 kts | 334° |
| 2026-04-26 10:49 | 60.29558 | 25.00001 | 524 ft | 114 kts | 333° |
| 2026-04-26 10:49 | 60.30268 | 24.99266 | 315 ft | 115 kts | 332° |
| 2026-04-26 10:49 | 60.30980 | 24.98541 | 181 ft | 110 kts | 332° |
| 2026-04-26 10:49 | 60.31560 | 24.97949 | 157 ft | 71 kts | 333° |
| 2026-04-26 10:50 | 60.31878 | 24.97630 | 152 ft | 41 kts | 333° |
| 2026-04-26 10:50 | 60.32120 | 24.97378 | 155 ft | 39 kts | 334° |
| 2026-04-26 10:50 | 60.32346 | 24.97146 | 160 ft | 22 kts | 331° |
| 2026-04-26 10:50 | 60.32370 | 24.96932 | 164 ft | 17 kts | 232° |
| 2026-04-26 10:51 | 60.32342 | 24.96872 | 165 ft | 0 kts | 229° |
| 2026-04-26 10:51 | 60.32329 | 24.96854 | 165 ft | 4 kts | 210° |
| 2026-04-26 10:52 | 60.32290 | 24.96862 | 165 ft | 8 kts | 155° |
| 2026-04-26 10:52 | 60.32226 | 24.96927 | 165 ft | 12 kts | 152° |
| 2026-04-26 10:52 | 60.32142 | 24.97017 | 166 ft | 15 kts | 152° |
| 2026-04-26 10:52 | 60.32036 | 24.97127 | 165 ft | 19 kts | 152° |
| 2026-04-26 10:53 | 60.31903 | 24.97267 | 162 ft | 24 kts | 153° |
| 2026-04-26 10:53 | 60.31750 | 24.97424 | 160 ft | 22 kts | 152° |
| 2026-04-26 10:53 | 60.31664 | 24.97501 | 159 ft | 12 kts | 170° |
| 2026-04-26 10:54 | 60.31654 | 24.97332 | 166 ft | 7 kts | 260° |
| 2026-04-26 10:54 | 60.31634 | 24.97248 | 167 ft | 0 kts | 243° |
| 2026-04-26 10:54 | 60.31633 | 24.97246 | 167 ft | 0 kts | 243° |